createdAt,value
2023-04-14T00:00:41.101Z,14.45
2023-04-14T00:06:03.858Z,14.41
2023-04-14T00:11:13.761Z,14.44
2023-04-14T00:16:29.485Z,14.40
2023-04-14T00:21:50.614Z,14.42
2023-04-14T00:27:02.088Z,14.39
2023-04-14T00:32:36.412Z,14.37
2023-04-14T00:38:00.387Z,14.38
2023-04-14T00:43:06.900Z,14.36
2023-04-14T00:48:24.228Z,14.36
2023-04-14T00:53:29.040Z,14.32
2023-04-14T01:04:06.470Z,14.32
2023-04-14T01:09:42.280Z,14.32
2023-04-14T01:15:28.605Z,14.25
2023-04-14T01:20:33.507Z,14.28
2023-04-14T01:26:25.021Z,14.21
2023-04-14T01:31:35.457Z,14.25
2023-04-14T01:36:52.378Z,14.25
2023-04-14T01:42:20.919Z,14.23
2023-04-14T01:47:31.984Z,14.20
2023-04-14T01:52:41.473Z,14.18
2023-04-14T01:57:50.667Z,14.18
2023-04-14T02:02:57.121Z,14.17
2023-04-14T02:08:06.399Z,14.18
2023-04-14T02:13:14.937Z,14.18
2023-04-14T02:18:20.116Z,14.15
2023-04-14T02:23:29.585Z,14.15
2023-04-14T02:28:35.062Z,14.11
2023-04-14T02:34:03.173Z,14.11
2023-04-14T02:39:54.276Z,14.06
2023-04-14T02:46:12.690Z,14.07
2023-04-14T03:28:28.311Z,13.96
2023-04-14T03:34:16.062Z,13.93
2023-04-14T03:46:03.898Z,13.88
2023-04-14T05:01:23.325Z,13.75
2023-04-14T05:06:55.922Z,13.72
2023-04-14T05:12:19.776Z,13.71
2023-04-14T05:23:41.240Z,13.70
2023-04-14T05:34:57.316Z,13.68
2023-04-14T05:52:35.352Z,13.68
2023-04-14T05:58:00.482Z,13.67
2023-04-14T06:21:37.386Z,13.66
2023-04-14T06:32:26.577Z,13.72
2023-04-14T06:37:52.876Z,13.73
2023-04-14T06:43:13.422Z,13.77
2023-04-14T07:01:02.343Z,14.18
2023-04-14T07:06:20.210Z,14.07
2023-04-14T07:12:02.818Z,14.11
2023-04-14T07:17:14.866Z,14.13
2023-04-14T07:22:27.744Z,14.34
2023-04-14T07:27:36.492Z,14.51
2023-04-14T08:22:48.465Z,14.67
2023-04-14T08:33:44.435Z,14.74
2023-04-14T08:39:04.368Z,14.80
2023-04-14T08:44:12.911Z,14.84
2023-04-14T08:49:57.809Z,14.92
2023-04-14T08:55:17.893Z,14.95
2023-04-14T09:05:45.767Z,15.02
2023-04-14T09:10:53.517Z,15.04
2023-04-14T11:57:29.073Z,15.67
2023-04-14T15:35:11.287Z,15.87
2023-04-14T15:40:13.263Z,15.89
2023-04-14T15:45:22.685Z,15.92
2023-04-14T15:51:36.735Z,15.93
2023-04-14T16:07:44.549Z,15.94
2023-04-14T16:13:38.411Z,15.95
2023-04-14T16:19:13.745Z,15.92
2023-04-14T16:30:16.257Z,18.56
2023-04-14T16:35:19.389Z,18.12
2023-04-14T16:45:53.927Z,17.88
2023-04-14T16:51:05.984Z,17.99
2023-04-14T16:56:29.420Z,18.09
2023-04-14T17:01:36.973Z,18.18
2023-04-14T17:06:39.374Z,17.77
2023-04-14T17:11:43.572Z,17.32
2023-04-14T17:16:47.000Z,17.11
2023-04-14T17:21:48.755Z,17.02
2023-04-14T17:27:00.888Z,16.83
2023-04-14T17:32:04.646Z,16.78
2023-04-14T17:37:06.829Z,16.63
2023-04-14T17:42:08.983Z,16.59
2023-04-14T17:47:13.997Z,16.53
2023-04-14T17:52:16.781Z,16.48
2023-04-14T17:57:23.746Z,16.34
2023-04-14T18:03:09.156Z,16.41
2023-04-14T18:08:16.120Z,16.78
2023-04-14T18:13:30.877Z,16.79
2023-04-14T18:18:35.453Z,16.83
2023-04-14T18:23:37.396Z,16.83
2023-04-14T19:16:11.047Z,16.78
